Severance, NY (12872)

2:28 AM EDT on May 05, 2015 (GMT -0400)
KNYSCHRO2 | | Change Station
CLOSE
Current Station
Personal Weather Station
Location: Schroon Lake, NY
Elevation: 866 ft
Nearby Weather Stations

Elev 866 ft 43.84 °N, 73.76 °W | Updated 13 seconds ago

Overcast
Overcast
61.0 °F
Feels Like 61.0 °F
N
0.0
Wind Variable Wind from NW
Gusts 0.0 mph

Today
High -- | Low -- °F
--% Chance of Precip.
Yesterday
High -- | Low -- °F
Precip. -- in
5:41 AM 8:02 PM
Full, 99% visible
Pressure 30.10 in
Visibility 10.0 miles
Clouds Scattered Clouds 2800 ft
Overcast 4200 ft
Dew Point 55 °F
Humidity 80%
Rainfall 0.00 in
Snow Depth Not available.
UV 0 out of 12
Pollen 11.60 out of 12
Air Quality Not available.
Flu Activity Widespread
METAR K6B0 050615Z AUTO 34009G14KT 10SM SCT028 OVC042 19/12 A3010 RMK AO2 T01850121

More Conditions Fewer Conditions

Pressure 30.10 in
Visibility 10.0 miles
Clouds Scattered Clouds 2800 ft
Overcast 4200 ft
Dew Point 55 °F
Humidity 80%
Rainfall 0.00 in
Snow Depth Not available.
UV 0 out of 12
Pollen 11.60 out of 12
Air Quality Not available.
Flu Activity Widespread
METAR K6B0 050615Z AUTO 34009G14KT 10SM SCT028 OVC042 19/12 A3010 RMK AO2 T01850121

More Conditions Fewer Conditions

Nepal has a long way to go to dig out and rebuild from a devastating earthquake. We have teamed up with several charities and organizations to make contributing to the relief effort as easy as possible.
How you can help: Portlight Strategies | Red Cross

10-Day Weather Forecast

Almanac

Astronomy

May. 05, 2015 Rise Set
Actual Time
Civil Twilight
Nautical Twilight
Astronomical Twilight
Moon
Length of Visible Light
Length of Day
Tomorrow will be .
, % of the Moon is Illuminated

Today's Extremes

State Highs State Lows

Community

WunderPhotos

Upload Photos

1,818,814 photos uploaded!

WunderBlogs® & News

Nearby

Air Quality

  Air Quality AQ Index Pollutant
Not available.

Snow Depth

Station Depth Elevation

Earthquake Activity

City Distance Mag. Time & Date
Minimum magnitude displayed is 2.5.

Coastal Water Temperatures

Place Temperature

Stations

Nearby Weather Stations

Station Location Temp. Windchill Dew Point Humidity Wind Precip. Elev Updated Type